Time;durP1;ratioP1;P1;durP2;ratioP2;P2;SDS_P1;SDS_P2;PMS_P1;PMS_P2;Temp;Humidity;BMP_temperature;BMP_pressure;BME280_temperature;BME280_humidity;BME280_pressure;Samples;Min_cycle;Max_cycle;Signal;HPM_P1;HPM_P2
2023/09/24 00:01:07;;;;;;;8.70;4.17;;;12.50;99.90;;;;;;5066792;28;21166;-75
2023/09/24 00:03:35;;;;;;;9.57;4.80;;;12.40;99.90;;;;;;5065894;28;20057;-75
2023/09/24 00:06:09;;;;;;;8.37;4.80;;;12.40;99.90;;;;;;5065390;28;20085;-74
2023/09/24 00:08:35;;;;;;;8.13;5.13;;;12.40;99.90;;;;;;5066187;28;20013;-75
2023/09/24 00:11:02;;;;;;;8.67;4.93;;;12.30;99.90;;;;;;5065403;28;20048;-74
2023/09/24 00:13:34;;;;;;;7.60;4.10;;;12.40;99.90;;;;;;5066038;28;20034;-74
2023/09/24 00:16:10;;;;;;;12.68;4.70;;;12.40;99.90;;;;;;5066967;28;20084;-74
2023/09/24 00:18:37;;;;;;;6.47;4.27;;;12.40;99.90;;;;;;5064904;28;20134;-74
2023/09/24 00:21:06;;;;;;;8.37;4.13;;;12.30;99.90;;;;;;5064230;28;20033;-75
2023/09/24 00:23:32;;;;;;;10.53;4.17;;;12.20;99.90;;;;;;5063011;28;20113;-75
2023/09/24 00:26:00;;;;;;;8.07;4.17;;;12.20;99.90;;;;;;5066117;28;20089;-75
2023/09/24 00:28:28;;;;;;;9.73;3.97;;;12.10;99.90;;;;;;5070590;28;20013;-74
2023/09/24 00:31:03;;;;;;;10.27;4.27;;;12.20;99.90;;;;;;5067075;28;20126;-74
2023/09/24 00:33:36;;;;;;;8.63;4.03;;;12.00;99.90;;;;;;5066792;28;20025;-74
2023/09/24 00:36:01;;;;;;;11.03;3.97;;;12.00;99.90;;;;;;5067261;28;20026;-74
2023/09/24 00:38:29;;;;;;;8.90;3.60;;;11.90;99.90;;;;;;5067535;28;20021;-74
2023/09/24 00:40:55;;;;;;;8.67;4.30;;;11.90;99.90;;;;;;5067961;28;20028;-75
2023/09/24 00:43:33;;;;;;;8.97;3.90;;;11.80;99.90;;;;;;5064037;28;20045;-74
2023/09/24 00:46:03;;;;;;;6.33;3.70;;;11.70;99.90;;;;;;5065966;28;20033;-74
2023/09/24 00:48:38;;;;;;;6.50;3.70;;;11.70;99.90;;;;;;5063824;28;20047;-74
2023/09/24 00:51:26;;;;;;;7.83;3.83;;;11.70;99.90;;;;;;5065435;28;20041;-75
2023/09/24 00:53:53;;;;;;;6.37;3.77;;;11.60;99.90;;;;;;5066432;28;20009;-74
2023/09/24 00:56:22;;;;;;;16.30;5.07;;;11.50;99.90;;;;;;5067646;28;20029;-74
2023/09/24 00:58:52;;;;;;;11.33;4.27;;;11.50;99.90;;;;;;5068825;28;20009;-75
2023/09/24 01:01:24;;;;;;;8.80;3.90;;;11.50;99.90;;;;;;5065891;28;20095;-76
2023/09/24 01:04:00;;;;;;;7.63;3.75;;;11.40;99.90;;;;;;5067427;28;20020;-74
2023/09/24 01:06:31;;;;;;;11.70;3.73;;;11.40;99.90;;;;;;5065464;28;20032;-75
2023/09/24 01:09:03;;;;;;;11.10;3.97;;;11.40;99.90;;;;;;5068635;28;20051;-74
2023/09/24 01:11:33;;;;;;;7.72;3.17;;;11.30;99.90;;;;;;5069106;28;20238;-75
2023/09/24 01:14:05;;;;;;;5.57;3.57;;;11.20;99.90;;;;;;5068801;28;20037;-75
2023/09/24 01:16:34;;;;;;;9.93;3.30;;;11.30;99.90;;;;;;5068156;28;20021;-75
2023/09/24 01:18:59;;;;;;;9.67;3.40;;;11.20;99.90;;;;;;5069172;28;20032;-74
2023/09/24 01:21:29;;;;;;;7.57;4.00;;;11.20;99.90;;;;;;5067321;28;20034;-74
2023/09/24 01:23:59;;;;;;;7.13;4.00;;;11.20;99.90;;;;;;5066920;28;20056;-75
2023/09/24 01:26:34;;;;;;;8.13;3.50;;;11.20;99.90;;;;;;5068008;28;20021;-74
2023/09/24 01:29:07;;;;;;;8.77;3.53;;;11.20;99.90;;;;;;5081812;28;20045;-74
2023/09/24 01:31:38;;;;;;;;;;;11.10;99.90;;;;;;5073350;28;20068;-75
2023/09/24 01:34:06;;;;;;;5.93;2.83;;;11.10;99.90;;;;;;5067271;28;19909;-74
2023/09/24 01:36:45;;;;;;;;;;;;;;;;;;;;;
2023/09/24 01:39:32;;;;;;;8.77;4.07;;;11.00;99.90;;;;;;5097954;27;20494;-72
2023/09/24 01:42:00;;;;;;;7.03;3.00;;;11.00;99.90;;;;;;5093128;28;20025;-75
2023/09/24 01:44:29;;;;;;;6.93;3.20;;;11.00;99.90;;;;;;5091122;28;20031;-74
2023/09/24 01:46:54;;;;;;;10.47;3.57;;;11.00;99.90;;;;;;5094148;28;20024;-74
2023/09/24 01:49:22;;;;;;;5.50;2.63;;;10.90;99.90;;;;;;5089289;28;20012;-74
2023/09/24 01:51:47;;;;;;;11.50;2.77;;;11.00;99.90;;;;;;5104762;28;20018;-73
2023/09/24 01:54:13;;;;;;;10.97;2.93;;;10.90;99.90;;;;;;5095316;28;20086;-73
2023/09/24 01:56:39;;;;;;;6.27;3.00;;;10.90;99.90;;;;;;5093799;28;20027;-73
2023/09/24 01:59:05;;;;;;;9.73;3.13;;;10.90;99.90;;;;;;5094847;28;20048;-76
2023/09/24 02:01:31;;;;;;;7.30;2.93;;;10.90;99.90;;;;;;5092680;28;20044;-73
2023/09/24 02:04:05;;;;;;;7.27;3.70;;;10.90;99.90;;;;;;5094195;28;20040;-73
2023/09/24 02:06:34;;;;;;;5.83;3.33;;;10.80;99.90;;;;;;5097189;28;20040;-73
2023/09/24 02:09:01;;;;;;;8.30;3.00;;;10.80;99.90;;;;;;5092519;28;20028;-73
2023/09/24 02:11:29;;;;;;;5.73;2.93;;;10.80;99.90;;;;;;5091203;28;20017;-73
2023/09/24 02:13:54;;;;;;;9.07;3.53;;;10.80;99.90;;;;;;5091118;28;20092;-73
2023/09/24 02:16:20;;;;;;;7.60;2.47;;;10.80;99.90;;;;;;5093526;28;20039;-74
2023/09/24 02:18:46;;;;;;;8.30;2.73;;;10.70;99.90;;;;;;5094477;28;20037;-73
2023/09/24 02:21:15;;;;;;;6.47;2.77;;;10.70;99.90;;;;;;5095648;28;20083;-73
2023/09/24 02:23:43;;;;;;;5.67;3.23;;;10.60;99.90;;;;;;5094508;28;20118;-74
2023/09/24 02:26:09;;;;;;;5.40;2.27;;;10.70;99.90;;;;;;5092383;28;20099;-74
2023/09/24 02:28:39;;;;;;;5.07;2.03;;;10.60;99.90;;;;;;5091581;28;20025;-73
2023/09/24 02:31:11;;;;;;;5.70;1.57;;;10.70;99.90;;;;;;5097748;28;20020;-73
2023/09/24 02:33:37;;;;;;;7.93;2.33;;;10.60;99.90;;;;;;5093706;28;20031;-73
2023/09/24 02:36:09;;;;;;;4.43;1.87;;;10.60;99.90;;;;;;5097147;28;20043;-73
2023/09/24 02:38:34;;;;;;;6.23;1.80;;;10.60;99.90;;;;;;5089891;28;20040;-74
2023/09/24 02:41:00;;;;;;;9.57;2.67;;;10.60;99.90;;;;;;5094569;28;20342;-73
2023/09/24 02:43:27;;;;;;;6.87;1.60;;;10.60;99.90;;;;;;5088395;28;20025;-73
2023/09/24 02:45:53;;;;;;;5.93;1.83;;;10.50;99.90;;;;;;5090495;28;20168;-73
2023/09/24 02:48:21;;;;;;;3.00;1.70;;;10.60;99.90;;;;;;5095413;28;20024;-73
2023/09/24 02:50:47;;;;;;;6.67;1.43;;;10.60;99.90;;;;;;5082638;28;20020;-74
2023/09/24 02:53:13;;;;;;;4.50;1.70;;;10.60;99.90;;;;;;5076411;28;20037;-73
2023/09/24 02:55:38;;;;;;;3.77;1.87;;;10.60;99.90;;;;;;5078428;28;20013;-74
2023/09/24 02:58:05;;;;;;;4.00;1.60;;;10.60;99.90;;;;;;5083927;28;20072;-74
2023/09/24 03:00:41;;;;;;;3.47;1.60;;;10.60;99.90;;;;;;5075581;28;20076;-73
2023/09/24 03:03:10;;;;;;;7.27;1.70;;;10.50;99.90;;;;;;5081673;28;20020;-73
2023/09/24 03:05:36;;;;;;;5.53;1.50;;;10.60;99.90;;;;;;5077023;28;20085;-74
2023/09/24 03:08:03;;;;;;;6.67;1.50;;;10.50;99.90;;;;;;5083366;28;20025;-74
2023/09/24 03:10:36;;;;;;;6.27;1.57;;;10.50;99.90;;;;;;5078895;28;20032;-73
2023/09/24 03:13:04;;;;;;;3.63;1.60;;;10.40;99.90;;;;;;5078852;28;20036;-74
2023/09/24 03:15:31;;;;;;;4.83;1.70;;;10.40;99.90;;;;;;5080899;28;20056;-73
2023/09/24 03:17:57;;;;;;;3.13;1.60;;;10.30;99.90;;;;;;5079962;28;20059;-74
2023/09/24 03:20:27;;;;;;;6.50;1.50;;;10.40;99.90;;;;;;5080770;28;20108;-75
2023/09/24 03:23:02;;;;;;;3.90;1.30;;;10.30;99.90;;;;;;5080512;28;20005;-73
2023/09/24 03:25:31;;;;;;;2.27;1.23;;;10.30;99.90;;;;;;5076363;28;20212;-73
2023/09/24 03:28:00;;;;;;;6.43;1.30;;;10.40;99.90;;;;;;5077511;28;20021;-73
2023/09/24 03:30:29;;;;;;;4.43;1.33;;;10.40;99.90;;;;;;5080137;28;20021;-74
2023/09/24 03:32:56;;;;;;;4.27;1.70;;;10.30;99.90;;;;;;5079553;28;20025;-73
2023/09/24 03:35:26;;;;;;;4.73;1.90;;;10.30;99.90;;;;;;5077631;28;20012;-73
2023/09/24 03:37:55;;;;;;;4.50;1.47;;;10.30;99.90;;;;;;5077168;28;20059;-74
2023/09/24 03:40:23;;;;;;;3.87;1.93;;;10.20;99.90;;;;;;5076896;28;20032;-74
2023/09/24 03:42:51;;;;;;;4.30;1.60;;;10.20;99.90;;;;;;5091050;28;20040;-74
2023/09/24 03:45:18;;;;;;;5.37;1.70;;;10.20;99.90;;;;;;5081653;28;20028;-74
2023/09/24 03:47:48;;;;;;;4.13;2.07;;;10.20;99.90;;;;;;5077151;28;20120;-73
2023/09/24 03:50:16;;;;;;;3.17;1.70;;;10.20;99.90;;;;;;5081776;28;20009;-74
2023/09/24 03:53:05;;;;;;;3.20;1.73;;;10.20;99.90;;;;;;5079596;28;20037;-74
2023/09/24 03:55:31;;;;;;;4.67;1.70;;;10.20;99.90;;;;;;5070129;28;20048;-73
2023/09/24 03:57:57;;;;;;;6.87;1.97;;;10.20;99.90;;;;;;5087255;28;20040;-73
2023/09/24 04:00:25;;;;;;;6.30;1.70;;;10.20;99.90;;;;;;5078378;28;20037;-73
2023/09/24 04:02:53;;;;;;;4.07;1.67;;;10.20;99.90;;;;;;5091629;28;20036;-73
2023/09/24 04:05:21;;;;;;;5.30;1.83;;;10.10;99.90;;;;;;5096442;28;20026;-73
2023/09/24 04:07:53;;;;;;;3.73;1.80;;;10.20;99.90;;;;;;5079001;28;20021;-73
2023/09/24 04:10:23;;;;;;;3.47;1.83;;;10.10;99.90;;;;;;5078892;28;20206;-74
2023/09/24 04:12:52;;;;;;;5.03;1.57;;;10.20;99.90;;;;;;5093546;28;20088;-74
2023/09/24 04:15:21;;;;;;;4.47;2.27;;;10.00;99.90;;;;;;5091937;28;20016;-74
2023/09/24 04:17:48;;;;;;;4.50;1.57;;;9.90;99.90;;;;;;5079027;28;20025;-73
2023/09/24 04:20:20;;;;;;;4.13;1.97;;;9.90;99.90;;;;;;5076819;28;20020;-73
2023/09/24 04:22:48;;;;;;;6.00;1.98;;;9.90;99.90;;;;;;5082653;28;20044;-75
2023/09/24 04:25:20;;;;;;;7.57;1.83;;;9.90;99.90;;;;;;5082545;28;20016;-74
2023/09/24 04:27:49;;;;;;;7.35;1.95;;;9.90;99.90;;;;;;5077650;28;20052;-73
2023/09/24 04:30:18;;;;;;;5.13;1.70;;;9.90;99.90;;;;;;5076944;28;20094;-74
2023/09/24 04:32:51;;;;;;;2.43;1.40;;;9.80;99.90;;;;;;5077746;28;20050;-73
2023/09/24 04:35:20;;;;;;;6.10;1.80;;;9.80;99.90;;;;;;5080459;28;20033;-73
2023/09/24 04:37:47;;;;;;;5.30;1.70;;;9.80;99.90;;;;;;5078864;28;20091;-74
2023/09/24 04:40:15;;;;;;;4.50;1.50;;;9.80;99.90;;;;;;5079590;28;20044;-73
2023/09/24 04:42:41;;;;;;;3.33;1.70;;;9.80;99.90;;;;;;5077839;28;20085;-73
2023/09/24 04:45:11;;;;;;;3.87;1.97;;;9.80;99.90;;;;;;5080286;28;20017;-73
2023/09/24 04:47:39;;;;;;;3.03;1.50;;;9.80;99.90;;;;;;5075836;28;20025;-74
2023/09/24 04:50:07;;;;;;;6.17;1.93;;;9.70;99.90;;;;;;5077828;28;20051;-74
2023/09/24 04:52:33;;;;;;;7.03;1.70;;;9.70;99.90;;;;;;5089853;28;20037;-73
2023/09/24 04:55:05;;;;;;;4.83;1.47;;;9.70;99.90;;;;;;5076286;28;20248;-74
2023/09/24 04:57:31;;;;;;;6.05;1.80;;;9.70;99.90;;;;;;5076843;28;20038;-73
2023/09/24 05:00:00;;;;;;;4.47;1.73;;;9.60;99.90;;;;;;5092919;28;20467;-73
2023/09/24 05:02:28;;;;;;;3.93;1.33;;;9.60;99.90;;;;;;5077700;28;20025;-74
2023/09/24 05:04:54;;;;;;;3.43;1.47;;;9.50;99.90;;;;;;5076539;28;20036;-74
2023/09/24 05:07:21;;;;;;;5.43;2.10;;;9.50;99.90;;;;;;5080906;28;20017;-75
2023/09/24 05:09:47;;;;;;;3.83;1.80;;;9.60;99.90;;;;;;5076468;28;20028;-74
2023/09/24 05:12:15;;;;;;;10.43;3.20;;;9.60;99.90;;;;;;5072651;28;20045;-74
2023/09/24 05:14:43;;;;;;;6.57;3.13;;;9.50;99.90;;;;;;5079729;28;20009;-73
2023/09/24 05:17:09;;;;;;;10.07;5.37;;;9.50;99.90;;;;;;5091957;28;20021;-73
2023/09/24 05:19:35;;;;;;;9.03;5.50;;;9.50;99.90;;;;;;5079000;28;20020;-73
2023/09/24 05:22:00;;;;;;;5.87;3.30;;;9.50;99.90;;;;;;5080099;28;20020;-73
2023/09/24 05:24:30;;;;;;;5.43;2.73;;;9.50;99.90;;;;;;5092019;28;20028;-73
2023/09/24 05:26:58;;;;;;;10.03;3.63;;;9.50;99.90;;;;;;5079372;28;20043;-73
2023/09/24 05:29:26;;;;;;;5.77;3.03;;;9.40;99.90;;;;;;5080285;28;20010;-74
2023/09/24 05:31:55;;;;;;;8.33;5.03;;;9.40;99.90;;;;;;5078421;28;20023;-74
2023/09/24 05:34:24;;;;;;;7.27;2.77;;;9.40;99.90;;;;;;5078785;28;20097;-73
2023/09/24 05:36:50;;;;;;;5.90;2.97;;;9.40;99.90;;;;;;5078827;28;20047;-73
2023/09/24 05:39:18;;;;;;;5.57;3.07;;;9.40;99.90;;;;;;5075319;28;20074;-73
2023/09/24 05:41:44;;;;;;;5.63;2.50;;;9.40;99.90;;;;;;5087834;28;20040;-74
2023/09/24 05:44:10;;;;;;;6.87;2.47;;;9.40;99.90;;;;;;5078660;28;20080;-73
2023/09/24 05:46:37;;;;;;;3.80;2.20;;;9.40;99.90;;;;;;5080459;28;20035;-73
2023/09/24 05:49:05;;;;;;;5.27;2.70;;;9.30;99.90;;;;;;5077318;28;20090;-75
2023/09/24 05:51:30;;;;;;;9.57;3.87;;;9.40;99.90;;;;;;5077433;28;20016;-73
2023/09/24 05:54:03;;;;;;;4.67;2.60;;;9.40;99.90;;;;;;5075824;28;20018;-74
2023/09/24 05:56:29;;;;;;;8.30;4.87;;;9.40;99.90;;;;;;5076496;28;20048;-73
2023/09/24 05:58:56;;;;;;;9.57;4.17;;;9.40;99.90;;;;;;5080368;28;20033;-74
2023/09/24 06:01:25;;;;;;;4.77;2.40;;;9.40;99.90;;;;;;5077462;28;20032;-73
2023/09/24 06:03:51;;;;;;;11.97;3.97;;;9.40;99.90;;;;;;5087027;28;20029;-73
2023/09/24 06:06:17;;;;;;;7.63;3.63;;;9.50;99.90;;;;;;5075361;28;20021;-74
2023/09/24 06:08:45;;;;;;;7.23;3.83;;;9.40;99.90;;;;;;5075813;28;20127;-73
2023/09/24 06:11:11;;;;;;;8.93;3.23;;;9.60;99.90;;;;;;5073124;28;20080;-73
2023/09/24 06:13:36;;;;;;;7.77;3.17;;;9.60;99.90;;;;;;5075772;28;20055;-73
2023/09/24 06:16:02;;;;;;;9.90;3.60;;;9.60;99.90;;;;;;5081042;28;20017;-73
2023/09/24 06:18:28;;;;;;;7.60;2.43;;;9.60;99.90;;;;;;5071051;28;20048;-74
2023/09/24 06:20:58;;;;;;;7.53;4.43;;;9.60;99.90;;;;;;5074359;28;20017;-73
2023/09/24 06:23:24;;;;;;;5.87;3.40;;;9.70;99.90;;;;;;5073359;28;20021;-73
2023/09/24 06:26:04;;;;;;;8.97;3.40;;;9.70;99.90;;;;;;5079217;28;20012;-73
2023/09/24 06:28:30;;;;;;;6.70;3.87;;;9.80;99.90;;;;;;5079994;28;20138;-73
2023/09/24 06:31:05;;;;;;;7.83;3.23;;;9.80;99.90;;;;;;5078810;28;20017;-73
2023/09/24 06:33:34;;;;;;;7.87;3.53;;;9.80;99.90;;;;;;5192115;22;20056;-73
2023/09/24 06:36:03;;;;;;;4.30;2.60;;;9.80;99.90;;;;;;5057040;28;20005;-73
2023/09/24 06:38:34;;;;;;;5.40;3.73;;;9.80;99.90;;;;;;5054913;28;20044;-73
2023/09/24 06:41:12;;;;;;;5.80;3.20;;;10.00;99.90;;;;;;5068567;28;20018;-74
2023/09/24 06:43:47;;;;;;;9.27;5.50;;;10.00;99.90;;;;;;5054979;28;20089;-73
2023/09/24 06:46:15;;;;;;;15.90;7.60;;;10.00;99.90;;;;;;5066851;28;20067;-73
2023/09/24 06:48:44;;;;;;;10.53;5.33;;;10.10;99.90;;;;;;5055490;28;20026;-73
2023/09/24 06:51:10;;;;;;;8.17;4.13;;;10.30;99.90;;;;;;5055678;28;20021;-73
2023/09/24 06:53:50;;;;;;;10.20;3.77;;;10.30;99.90;;;;;;5055281;28;20029;-74
2023/09/24 06:56:16;;;;;;;6.00;3.33;;;10.30;99.90;;;;;;5055815;28;20033;-74
2023/09/24 06:58:44;;;;;;;8.37;3.33;;;10.30;99.90;;;;;;5053257;28;20045;-74
2023/09/24 07:01:10;;;;;;;7.93;3.77;;;10.30;99.90;;;;;;5066361;28;20114;-75
2023/09/24 07:03:36;;;;;;;4.87;3.00;;;10.40;99.90;;;;;;5055513;28;20179;-74
2023/09/24 07:06:07;;;;;;;8.97;3.17;;;10.50;99.90;;;;;;5054048;28;20049;-77
2023/09/24 07:08:35;;;;;;;5.77;2.57;;;10.50;99.90;;;;;;5054329;28;20055;-74
2023/09/24 07:11:22;;;;;;;5.83;3.47;;;10.60;99.90;;;;;;5055185;28;20017;-74
2023/09/24 07:13:50;;;;;;;7.97;3.53;;;10.70;99.90;;;;;;5067885;28;20036;-74
2023/09/24 07:16:21;;;;;;;7.10;3.40;;;10.70;99.90;;;;;;5054898;28;20057;-75
2023/09/24 07:18:49;;;;;;;8.20;2.93;;;10.80;99.90;;;;;;5070983;28;20033;-75
2023/09/24 07:21:18;;;;;;;6.50;3.03;;;10.90;99.90;;;;;;5054809;28;20021;-75
2023/09/24 07:23:47;;;;;;;4.13;2.67;;;10.90;99.90;;;;;;5054881;28;20014;-74
2023/09/24 07:26:13;;;;;;;6.20;2.63;;;11.00;99.90;;;;;;5053274;28;20032;-74
2023/09/24 07:28:39;;;;;;;6.67;2.50;;;11.10;99.90;;;;;;5054458;28;20096;-77
2023/09/24 07:31:16;;;;;;;5.73;2.50;;;11.10;99.90;;;;;;5070443;28;20041;-74
2023/09/24 07:33:42;;;;;;;6.47;4.00;;;11.20;99.90;;;;;;5054701;28;20033;-74
2023/09/24 07:36:09;;;;;;;8.10;3.43;;;11.30;99.90;;;;;;5053106;28;20301;-75
2023/09/24 07:38:35;;;;;;;5.87;3.20;;;11.30;99.90;;;;;;5054059;28;20064;-74
2023/09/24 07:41:01;;;;;;;8.57;3.80;;;11.40;99.90;;;;;;5055062;28;20037;-74
2023/09/24 07:43:26;;;;;;;6.30;3.03;;;11.40;99.90;;;;;;5054188;28;20029;-74
2023/09/24 07:45:52;;;;;;;8.93;3.67;;;11.50;99.90;;;;;;5054948;28;20044;-74
2023/09/24 07:48:18;;;;;;;6.33;3.27;;;11.50;99.90;;;;;;5049353;28;20029;-72
2023/09/24 07:50:55;;;;;;;9.40;3.80;;;11.60;99.90;;;;;;5053963;28;20016;-74
2023/09/24 07:53:23;;;;;;;7.73;4.13;;;11.60;99.90;;;;;;5054736;28;20032;-75
2023/09/24 07:56:03;;;;;;;5.27;2.40;;;11.70;99.90;;;;;;5053711;28;20041;-74
2023/09/24 07:58:32;;;;;;;6.80;2.93;;;11.70;99.90;;;;;;5054650;28;20033;-75
2023/09/24 08:01:11;;;;;;;7.57;3.00;;;11.70;99.90;;;;;;5053546;28;20059;-74
2023/09/24 08:03:42;;;;;;;5.10;2.47;;;11.80;99.90;;;;;;5053747;28;20075;-74
2023/09/24 08:06:10;;;;;;;6.57;2.37;;;11.80;99.90;;;;;;5054320;28;20040;-74
2023/09/24 08:08:37;;;;;;;6.63;3.07;;;11.80;99.90;;;;;;5053396;28;20026;-74
2023/09/24 08:11:02;;;;;;;9.03;3.13;;;11.90;99.90;;;;;;5052447;28;20014;-73
2023/09/24 08:13:31;;;;;;;5.60;2.77;;;11.90;99.90;;;;;;5068561;28;20032;-74
2023/09/24 08:15:59;;;;;;;8.40;4.17;;;11.90;99.90;;;;;;5051914;28;20017;-75
2023/09/24 08:18:27;;;;;;;6.90;3.40;;;12.00;99.90;;;;;;5052177;28;20042;-74
2023/09/24 08:20:54;;;;;;;5.83;2.00;;;12.00;99.90;;;;;;5065216;28;20030;-74
2023/09/24 08:23:21;;;;;;;7.87;2.70;;;12.00;99.90;;;;;;5067872;28;20048;-74
2023/09/24 08:25:50;;;;;;;7.37;3.73;;;12.10;99.90;;;;;;5053243;28;20021;-75
2023/09/24 08:28:18;;;;;;;7.40;2.80;;;12.10;99.90;;;;;;5068527;28;20148;-74
2023/09/24 08:30:44;;;;;;;7.17;2.53;;;12.20;99.90;;;;;;5053323;28;20021;-74
2023/09/24 08:33:15;;;;;;;7.33;3.07;;;12.20;99.90;;;;;;5051769;28;20060;-75
2023/09/24 08:35:40;;;;;;;5.13;2.60;;;12.20;99.90;;;;;;5051995;28;20017;-73
2023/09/24 08:38:07;;;;;;;8.77;3.20;;;12.30;99.90;;;;;;5067269;28;20117;-74
2023/09/24 08:40:35;;;;;;;10.03;4.17;;;12.30;99.90;;;;;;5052542;28;20036;-74
2023/09/24 08:43:09;;;;;;;10.23;4.47;;;12.30;99.90;;;;;;5050579;28;20037;-74
2023/09/24 08:45:37;;;;;;;7.90;2.77;;;12.30;99.90;;;;;;5052573;28;20017;-75
2023/09/24 08:48:07;;;;;;;5.00;2.10;;;12.40;99.90;;;;;;5050514;28;20021;-74
2023/09/24 08:50:44;;;;;;;5.30;1.80;;;12.50;99.90;;;;;;5051544;28;20018;-74
2023/09/24 08:53:15;;;;;;;8.23;2.90;;;12.50;99.90;;;;;;5050798;28;20033;-74
2023/09/24 08:55:45;;;;;;;5.00;2.00;;;12.60;99.90;;;;;;5051520;28;20165;-75
2023/09/24 08:58:13;;;;;;;4.23;2.13;;;12.70;99.90;;;;;;5046143;28;20048;-74
2023/09/24 09:00:39;;;;;;;5.90;2.77;;;12.80;99.90;;;;;;5051302;28;20096;-75
2023/09/24 09:03:05;;;;;;;3.47;1.50;;;12.80;99.90;;;;;;5052013;28;20036;-73
2023/09/24 09:05:36;;;;;;;5.27;2.37;;;12.90;99.90;;;;;;5051264;28;20232;-74
2023/09/24 09:08:03;;;;;;;5.63;1.70;;;13.00;99.90;;;;;;5050927;28;20060;-73
2023/09/24 09:10:30;;;;;;;7.72;2.10;;;13.10;99.90;;;;;;5051932;28;20022;-73
2023/09/24 09:13:09;;;;;;;5.90;2.43;;;13.20;99.90;;;;;;5067126;28;20077;-73
2023/09/24 09:15:37;;;;;;;5.03;2.03;;;13.20;99.90;;;;;;5061857;28;20045;-73
2023/09/24 09:18:06;;;;;;;5.37;2.27;;;13.20;99.90;;;;;;5066493;28;20025;-74
2023/09/24 09:20:43;;;;;;;3.77;1.80;;;13.30;99.90;;;;;;5050878;28;20164;-73
2023/09/24 09:23:12;;;;;;;2.92;1.70;;;13.40;99.90;;;;;;5066597;28;20014;-74
2023/09/24 09:25:52;;;;;;;5.75;2.40;;;13.40;99.90;;;;;;5067962;28;20085;-73
2023/09/24 09:28:22;;;;;;;7.00;1.60;;;13.50;99.90;;;;;;5050739;28;20091;-75
2023/09/24 09:31:08;;;;;;;5.75;2.53;;;13.60;99.90;;;;;;5051953;28;20028;-74
2023/09/24 09:33:35;;;;;;;6.32;2.25;;;13.60;99.90;;;;;;5050231;28;20028;-73
2023/09/24 09:36:02;;;;;;;4.00;1.95;;;13.60;99.90;;;;;;5051782;28;20013;-73
2023/09/24 09:38:31;;;;;;;5.70;2.70;;;13.60;99.90;;;;;;5066424;28;20037;-73
2023/09/24 09:40:59;;;;;;;5.63;1.92;;;13.70;99.90;;;;;;5051152;28;20056;-73
2023/09/24 09:43:29;;;;;;;6.82;2.03;;;13.70;99.90;;;;;;5050446;28;20022;-73
2023/09/24 09:45:56;;;;;;;7.82;2.05;;;13.70;99.90;;;;;;5051025;28;20045;-74
2023/09/24 09:48:36;;;;;;;6.18;2.05;;;13.70;99.90;;;;;;5066948;28;20033;-75
2023/09/24 09:51:07;;;;;;;4.82;1.25;;;13.80;99.90;;;;;;5051031;28;20129;-73
2023/09/24 09:53:38;;;;;;;4.30;1.60;;;13.70;99.90;;;;;;5049751;28;20101;-73
2023/09/24 09:56:06;;;;;;;3.07;1.37;;;13.80;99.90;;;;;;5051665;28;20077;-73
2023/09/24 09:58:36;;;;;;;5.00;1.83;;;13.90;99.90;;;;;;5061016;28;20056;-73
2023/09/24 10:01:06;;;;;;;11.10;1.52;;;13.90;99.90;;;;;;5054862;28;20045;-72
2023/09/24 10:03:38;;;;;;;4.60;1.52;;;14.00;99.90;;;;;;5055167;28;20095;-73
2023/09/24 10:06:07;;;;;;;4.32;2.22;;;14.00;99.90;;;;;;5070865;28;20029;-73
2023/09/24 10:08:47;;;;;;;4.20;1.35;;;14.10;99.90;;;;;;5048635;28;20049;-73
2023/09/24 10:11:35;;;;;;;2.70;1.17;;;14.10;99.90;;;;;;5066866;28;20032;-74
2023/09/24 10:14:05;;;;;;;4.90;1.40;;;14.20;99.90;;;;;;5055159;28;20025;-76
2023/09/24 10:16:38;;;;;;;5.00;1.75;;;14.30;99.90;;;;;;5055233;28;20047;-74
2023/09/24 10:19:05;;;;;;;3.83;1.70;;;14.40;99.90;;;;;;5065871;28;20097;-74
2023/09/24 10:21:34;;;;;;;3.22;1.02;;;14.50;99.90;;;;;;5067860;28;20097;-73
2023/09/24 10:24:14;;;;;;;9.18;1.77;;;14.60;99.90;;;;;;5052650;28;20052;-73
2023/09/24 10:27:07;;;;;;;2.88;0.90;;;14.70;99.90;;;;;;5066125;28;20025;-75
2023/09/24 10:29:55;;;;;;;3.17;0.90;;;14.70;99.90;;;;;;5069755;28;20035;-74
2023/09/24 10:32:25;;;;;;;6.03;1.90;;;14.80;99.90;;;;;;5053849;28;20037;-73
2023/09/24 10:37:27;;;;;;;4.38;2.15;;;14.80;99.90;;;;;;5053909;28;20102;-75
2023/09/24 10:40:05;;;;;;;5.53;1.27;;;14.90;99.90;;;;;;5070581;28;20246;-74
2023/09/24 10:42:39;;;;;;;2.20;0.98;;;14.90;99.90;;;;;;5048953;28;20033;-75
2023/09/24 10:45:07;;;;;;;3.97;1.00;;;14.90;99.90;;;;;;5070486;28;20029;-75
2023/09/24 10:47:46;;;;;;;2.03;0.85;;;14.90;99.90;;;;;;5065471;28;20085;-73
2023/09/24 10:50:14;;;;;;;8.45;1.17;;;15.10;99.90;;;;;;5049153;28;20092;-74
2023/09/24 10:52:59;;;;;;;5.93;1.75;;;15.20;99.90;;;;;;5053572;28;20028;-74
2023/09/24 10:57:54;;;;;;;3.25;1.30;;;15.50;99.90;;;;;;5053450;28;20041;-75
2023/09/24 11:00:20;;;;;;;6.25;1.10;;;15.60;99.90;;;;;;5054172;28;20044;-75
2023/09/24 11:02:53;;;;;;;4.38;1.20;;;15.60;99.90;;;;;;5069229;28;20017;-73
2023/09/24 11:05:22;;;;;;;14.35;3.65;;;15.80;99.90;;;;;;5053920;28;20025;-73
2023/09/24 11:07:48;;;;;;;8.25;1.55;;;15.80;99.90;;;;;;5054094;28;20083;-75
2023/09/24 11:10:18;;;;;;;7.47;1.98;;;15.90;99.90;;;;;;5052441;28;20105;-74
2023/09/24 11:12:54;;;;;;;3.25;1.00;;;15.90;99.90;;;;;;5064876;28;20014;-74
2023/09/24 11:15:23;;;;;;;4.45;1.67;;;16.00;99.90;;;;;;5069751;28;20056;-74
2023/09/24 11:17:52;;;;;;;3.63;1.15;;;16.10;99.90;;;;;;5053599;28;20049;-74
2023/09/24 11:20:20;;;;;;;9.23;1.50;;;16.20;99.90;;;;;;5069977;28;20009;-74
2023/09/24 11:22:58;;;;;;;1.83;0.65;;;16.20;99.90;;;;;;5053022;28;20045;-74
2023/09/24 11:25:24;;;;;;;4.90;1.95;;;16.20;99.90;;;;;;5070431;28;20028;-74
2023/09/24 11:27:57;;;;;;;5.45;0.98;;;16.30;99.90;;;;;;5053116;28;20033;-74
2023/09/24 11:30:26;;;;;;;4.30;1.17;;;16.50;99.90;;;;;;5053036;28;20040;-74
2023/09/24 11:32:55;;;;;;;3.08;1.23;;;16.60;99.90;;;;;;5052768;28;20835;-74
2023/09/24 11:35:25;;;;;;;5.60;1.00;;;16.60;99.90;;;;;;5069541;28;20085;-74
2023/09/24 11:37:53;;;;;;;4.35;0.98;;;16.70;99.90;;;;;;5052888;28;20042;-74
2023/09/24 11:40:33;;;;;;;3.08;0.80;;;16.70;99.90;;;;;;5066056;28;20023;-75
2023/09/24 11:43:00;;;;;;;5.40;0.90;;;16.80;99.90;;;;;;5070051;28;20043;-74
2023/09/24 11:45:46;;;;;;;4.10;0.70;;;16.90;99.90;;;;;;5052177;28;20030;-77
2023/09/24 11:48:22;;;;;;;3.90;0.82;;;16.90;99.90;;;;;;5052540;28;20025;-75
2023/09/24 11:50:50;;;;;;;1.02;0.50;;;17.00;99.90;;;;;;5049869;28;20038;-77
2023/09/24 11:53:17;;;;;;;2.75;0.75;;;17.00;99.90;;;;;;5048060;28;20104;-75
2023/09/24 11:55:43;;;;;;;4.88;1.63;;;17.10;99.90;;;;;;5044666;28;20038;-77
2023/09/24 11:58:10;;;;;;;5.88;1.05;;;17.10;99.90;;;;;;5048131;28;20052;-76
2023/09/24 12:00:36;;;;;;;3.28;0.57;;;17.20;99.90;;;;;;5042547;28;20093;-77
2023/09/24 12:03:04;;;;;;;4.65;1.10;;;17.40;99.90;;;;;;5063499;28;20029;-78
2023/09/24 12:05:33;;;;;;;2.75;0.73;;;17.40;99.90;;;;;;5061222;28;20083;-81
2023/09/24 12:07:59;;;;;;;3.60;1.42;;;17.50;99.90;;;;;;5027505;28;20040;-80
2023/09/24 12:10:25;;;;;;;6.80;1.45;;;17.60;99.90;;;;;;5026591;28;20033;-79
2023/09/24 12:12:51;;;;;;;2.75;0.85;;;17.70;99.90;;;;;;5023857;28;20118;-80
2023/09/24 12:15:20;;;;;;;2.90;0.50;;;17.80;99.90;;;;;;5026479;28;20037;-83
2023/09/24 12:17:46;;;;;;;4.47;0.80;;;17.90;99.90;;;;;;5025896;28;20041;-80
2023/09/24 12:20:13;;;;;;;2.45;0.82;;;17.90;99.90;;;;;;5027006;28;20168;-82
2023/09/24 12:22:43;;;;;;;2.45;0.63;;;18.00;99.90;;;;;;5039897;28;20102;-83
2023/09/24 12:25:12;;;;;;;6.57;2.08;;;18.00;99.90;;;;;;5018385;28;20048;-82
2023/09/24 12:27:41;;;;;;;6.55;1.30;;;18.00;99.90;;;;;;5025633;28;20029;-82
2023/09/24 12:30:11;;;;;;;3.65;1.05;;;18.00;99.90;;;;;;5020433;28;20041;-81
2023/09/24 12:32:38;;;;;;;3.38;0.75;;;18.00;99.90;;;;;;5026319;28;20075;-80
2023/09/24 12:35:04;;;;;;;4.13;0.85;;;18.10;99.90;;;;;;5026033;28;20179;-84
2023/09/24 12:37:31;;;;;;;2.15;0.50;;;18.20;99.90;;;;;;5026353;28;20043;-83
2023/09/24 12:40:02;;;;;;;3.70;0.70;;;18.30;99.90;;;;;;5026601;28;20025;-84
2023/09/24 12:42:31;;;;;;;3.25;0.80;;;18.30;99.90;;;;;;5024252;28;20060;-84
2023/09/24 12:44:59;;;;;;;7.05;1.25;;;18.30;99.90;;;;;;5024151;28;20048;-80
2023/09/24 12:47:34;;;;;;;2.50;0.85;;;18.40;99.90;;;;;;5026616;28;20044;-80
2023/09/24 12:50:05;;;;;;;3.35;0.93;;;18.50;99.90;;;;;;5037175;28;20036;-80
2023/09/24 12:52:34;;;;;;;3.15;1.05;;;18.60;99.90;;;;;;5025771;28;20091;-83
2023/09/24 12:55:03;;;;;;;1.63;0.60;;;18.60;99.90;;;;;;5023726;28;20465;-81
2023/09/24 12:57:30;;;;;;;2.58;0.82;;;18.70;99.90;;;;;;5024386;28;20069;-82
2023/09/24 12:59:56;;;;;;;4.80;1.00;;;18.80;99.90;;;;;;5041279;28;20029;-82
2023/09/24 13:02:22;;;;;;;4.63;0.80;;;18.90;99.90;;;;;;5024559;28;20029;-85
2023/09/24 13:04:48;;;;;;;3.97;0.90;;;19.10;99.90;;;;;;5024085;28;20033;-80
2023/09/24 13:07:14;;;;;;;2.40;1.00;;;19.20;99.90;;;;;;5024106;28;20029;-84